Terminal Aerodrome Forecast
Issued by NWS Grand Junction, CO

Current Version | Previous Version | Text Only | Print | Product List | Glossary On
Versions: 1 2 3 4 5 6 7 8 9 10 11 12 13 14 15 16 17 18 19 20 21 22 23 24 25 26 27 28 29 30 31 32 33 34 35 36 37 38 39 40 41 42 43 44 45 46 47 48
000
FTUS45 KGJT 242333
TAFGJT
TAF
KGJT 242333Z 2500/2524 VRB05KT P6SM VCSH SCT050 BKN100 OVC150
      TEMPO 2501/2502 VRB15G25KT -SHRA BKN060
     FM250200 10006KT P6SM SCT080 BKN150
     FM251400 VRB03KT P6SM SCT070
     FM251800 33005KT P6SM VCSH SCT070 BKN150=

USA.gov is the U.S. government's official web portal to all federal, state and local government web resources and services.